createdAt,value
2024-01-15T00:00:29.974Z,-9.91
2024-01-15T00:03:38.690Z,-9.92
2024-01-15T00:06:46.112Z,-9.87
2024-01-15T00:09:51.287Z,-9.75
2024-01-15T00:12:55.100Z,-9.77
2024-01-15T00:16:01.323Z,-9.95
2024-01-15T00:19:06.066Z,-9.95
2024-01-15T00:22:10.040Z,-9.86
2024-01-15T00:25:18.950Z,-10.05
2024-01-15T00:28:23.089Z,-9.69
2024-01-15T00:31:26.794Z,-9.83
2024-01-15T00:34:30.684Z,-10.07
2024-01-15T00:37:34.917Z,-10.28
2024-01-15T00:40:40.298Z,-9.71
2024-01-15T00:43:45.180Z,-9.77
2024-01-15T00:46:49.232Z,-9.63
2024-01-15T00:49:54.900Z,-9.67
2024-01-15T00:52:58.578Z,-9.83
2024-01-15T00:56:05.737Z,-9.49
2024-01-15T00:59:11.555Z,-9.47
2024-01-15T01:02:15.286Z,-9.78
2024-01-15T01:05:19.149Z,-9.63
2024-01-15T01:08:24.338Z,-9.66
2024-01-15T01:11:29.440Z,-9.50
2024-01-15T01:14:34.755Z,-9.58
2024-01-15T01:17:38.687Z,-9.76
2024-01-15T01:20:42.902Z,-9.85
2024-01-15T01:23:46.838Z,-9.45
2024-01-15T01:26:53.099Z,-9.50
2024-01-15T01:29:57.434Z,-9.55
2024-01-15T01:33:02.999Z,-9.82
2024-01-15T01:36:10.950Z,-10.01
2024-01-15T01:39:20.540Z,-9.71
2024-01-15T01:42:28.336Z,-9.53
2024-01-15T01:45:34.734Z,-10.06
2024-01-15T01:48:39.206Z,-9.83
2024-01-15T01:51:43.116Z,-9.87
2024-01-15T01:54:50.028Z,-9.72
2024-01-15T01:57:59.596Z,-9.91
2024-01-15T02:01:03.765Z,-9.57
2024-01-15T02:04:08.579Z,-9.53
2024-01-15T02:07:12.543Z,-9.58
2024-01-15T02:10:16.697Z,-9.72
2024-01-15T02:13:26.543Z,-9.65
2024-01-15T02:16:31.945Z,-9.42
2024-01-15T02:19:41.000Z,-9.67
2024-01-15T02:22:44.746Z,-9.45
2024-01-15T02:25:50.273Z,-9.43
2024-01-15T02:28:54.796Z,-9.26
2024-01-15T02:31:59.886Z,-8.96
2024-01-15T02:35:03.706Z,-9.06
2024-01-15T02:38:08.550Z,-9.19
2024-01-15T02:41:17.219Z,-8.96
2024-01-15T02:44:21.026Z,-9.04
2024-01-15T02:47:27.836Z,-9.19
2024-01-15T02:50:31.641Z,-9.12
2024-01-15T02:53:35.390Z,-8.97
2024-01-15T02:56:40.809Z,-9.26
2024-01-15T02:59:44.429Z,-9.32
2024-01-15T03:02:49.189Z,-9.14
2024-01-15T03:05:55.611Z,-8.82
2024-01-15T03:08:59.473Z,-9.10
2024-01-15T03:12:05.948Z,-8.63
2024-01-15T03:15:10.123Z,-9.03
2024-01-15T03:18:13.860Z,-8.50
2024-01-15T03:21:17.648Z,-8.63
2024-01-15T03:24:21.747Z,-8.48
2024-01-15T03:27:29.649Z,-8.51
2024-01-15T03:30:33.155Z,-8.58
2024-01-15T03:33:37.261Z,-8.43
2024-01-15T03:36:43.560Z,-8.37
2024-01-15T03:39:55.788Z,-8.38
2024-01-15T03:43:00.956Z,-8.17
2024-01-15T03:46:06.341Z,-8.24
2024-01-15T03:49:10.136Z,-8.18
2024-01-15T03:52:14.465Z,-8.30
2024-01-15T03:55:18.384Z,-8.16
2024-01-15T03:58:26.621Z,-8.28
2024-01-15T04:01:33.113Z,-7.93
2024-01-15T04:04:37.192Z,-7.91
2024-01-15T04:07:40.997Z,-7.85
2024-01-15T04:10:44.698Z,-7.88
2024-01-15T04:13:49.822Z,-7.73
2024-01-15T04:16:53.576Z,-8.08
2024-01-15T04:19:57.499Z,-7.74
2024-01-15T04:23:01.266Z,-7.86
2024-01-15T04:26:05.080Z,-8.00
2024-01-15T04:29:10.277Z,-7.68
2024-01-15T04:32:13.998Z,-8.01
2024-01-15T04:35:17.988Z,-7.59
2024-01-15T04:38:21.664Z,-7.69
2024-01-15T04:41:25.465Z,-7.57
2024-01-15T04:44:30.763Z,-7.76
2024-01-15T04:47:34.489Z,-7.32
2024-01-15T04:50:38.185Z,-7.44
2024-01-15T04:53:41.871Z,-7.28
2024-01-15T04:56:45.732Z,-7.50
2024-01-15T04:59:50.883Z,-7.20
2024-01-15T05:02:54.661Z,-7.17
2024-01-15T05:05:58.396Z,-7.20
2024-01-15T05:09:02.151Z,-7.31
2024-01-15T05:12:06.675Z,-7.12
2024-01-15T05:15:12.564Z,-7.48
2024-01-15T05:18:16.540Z,-7.52
2024-01-15T05:21:20.346Z,-7.51
2024-01-15T05:24:24.152Z,-7.29
2024-01-15T05:27:27.946Z,-7.46
2024-01-15T05:30:33.254Z,-7.18
2024-01-15T05:33:37.048Z,-7.48
2024-01-15T05:36:41.384Z,-7.25
2024-01-15T05:39:45.221Z,-7.36
2024-01-15T05:42:49.093Z,-7.28
2024-01-15T05:45:54.282Z,-7.03
2024-01-15T05:48:58.267Z,-7.12
2024-01-15T05:52:02.070Z,-7.09
2024-01-15T05:55:06.258Z,-6.95
2024-01-15T05:58:10.087Z,-7.02
2024-01-15T06:01:15.327Z,-7.11
2024-01-15T06:04:19.297Z,-7.07
2024-01-15T06:07:23.988Z,-6.89
2024-01-15T06:10:27.631Z,-7.14
2024-01-15T06:13:31.306Z,-7.07
2024-01-15T06:16:36.332Z,-6.95
2024-01-15T06:19:40.220Z,-6.77
2024-01-15T06:22:44.099Z,-6.92
2024-01-15T06:25:47.860Z,-6.76
2024-01-15T06:28:51.620Z,-6.69
2024-01-15T06:31:56.824Z,-6.35
2024-01-15T06:35:00.561Z,-6.47
2024-01-15T06:38:04.437Z,-6.23
2024-01-15T06:41:08.198Z,-6.55
2024-01-15T06:44:12.202Z,-6.21
2024-01-15T06:47:18.602Z,-6.40
2024-01-15T06:50:22.507Z,-6.22
2024-01-15T06:53:26.236Z,-5.93
2024-01-15T06:56:30.018Z,-6.03
2024-01-15T06:59:33.655Z,-6.28
2024-01-15T07:02:38.893Z,-6.33
2024-01-15T07:05:42.677Z,-5.94
2024-01-15T07:08:46.368Z,-6.28
2024-01-15T07:11:50.140Z,-6.12
2024-01-15T07:14:53.912Z,-5.91
2024-01-15T07:17:59.025Z,-5.92
2024-01-15T07:21:03.992Z,-5.74
2024-01-15T07:24:07.732Z,-5.55
2024-01-15T07:27:11.567Z,-5.75
2024-01-15T07:30:16.639Z,-5.53
2024-01-15T07:33:22.073Z,-5.16
2024-01-15T07:36:25.848Z,-4.80
2024-01-15T07:39:30.205Z,-4.77
2024-01-15T07:42:33.945Z,-5.30
2024-01-15T07:45:38.020Z,-5.24
2024-01-15T07:48:43.370Z,-4.80
2024-01-15T07:51:47.222Z,-5.07
2024-01-15T07:54:51.006Z,-4.95
2024-01-15T07:58:06.777Z,-5.08
2024-01-15T08:01:19.066Z,-5.29
2024-01-15T08:04:24.691Z,-4.91
2024-01-15T08:07:28.876Z,-4.94
2024-01-15T08:10:32.512Z,-4.98
2024-01-15T08:13:36.161Z,-5.06
2024-01-15T08:16:40.259Z,-5.10
2024-01-15T08:19:45.679Z,-4.91
2024-01-15T08:22:49.580Z,-4.74
2024-01-15T08:25:53.551Z,-4.57
2024-01-15T08:28:57.461Z,-4.63
2024-01-15T08:32:01.351Z,-4.49
2024-01-15T08:35:07.478Z,-4.30
2024-01-15T08:38:11.342Z,-4.42
2024-01-15T08:41:15.795Z,-3.70
2024-01-15T08:44:19.564Z,-3.99
2024-01-15T08:47:23.600Z,-4.26
2024-01-15T08:50:28.782Z,-4.12
2024-01-15T08:53:32.455Z,-4.37
2024-01-15T08:56:36.155Z,-4.45
2024-01-15T08:59:39.961Z,-4.21
2024-01-15T09:02:44.243Z,-4.34
2024-01-15T09:05:51.343Z,-4.38
2024-01-15T09:08:55.062Z,-4.07
2024-01-15T09:11:58.820Z,-3.88
2024-01-15T09:15:05.510Z,-4.14
2024-01-15T09:18:09.576Z,-4.35
2024-01-15T09:21:14.836Z,-4.10
2024-01-15T09:24:18.524Z,-4.00
2024-01-15T09:27:31.116Z,-4.08
2024-01-15T09:30:34.831Z,-4.15
2024-01-15T09:33:38.635Z,-4.09
2024-01-15T09:36:44.636Z,-3.96
2024-01-15T09:39:49.564Z,-4.25
2024-01-15T09:42:54.739Z,-3.94
2024-01-15T09:45:59.843Z,-3.49
2024-01-15T09:49:04.044Z,-3.87
2024-01-15T09:52:12.222Z,-3.52
2024-01-15T09:55:17.645Z,-3.41
2024-01-15T09:58:23.015Z,-3.47
2024-01-15T10:01:27.844Z,-3.47
2024-01-15T10:04:31.915Z,-3.75
2024-01-15T10:07:38.472Z,-3.29
2024-01-15T10:10:42.187Z,-3.07
2024-01-15T10:13:47.716Z,-3.19
2024-01-15T10:16:52.360Z,-3.25
2024-01-15T10:19:56.112Z,-3.26
2024-01-15T10:23:01.586Z,-3.23
2024-01-15T10:26:05.996Z,-3.23
2024-01-15T10:29:09.639Z,-3.46
2024-01-15T10:32:14.163Z,-3.23
2024-01-15T10:35:17.792Z,-3.46
2024-01-15T10:38:23.415Z,-3.43
2024-01-15T10:41:27.133Z,-3.46
2024-01-15T10:44:31.337Z,-3.43
2024-01-15T10:47:35.198Z,-3.14
2024-01-15T10:50:38.934Z,-3.30
2024-01-15T10:53:45.143Z,-3.49
2024-01-15T10:56:49.635Z,-3.02
2024-01-15T10:59:53.298Z,-3.29
2024-01-15T11:02:57.265Z,-2.88
2024-01-15T11:06:02.541Z,-3.26
2024-01-15T11:09:09.121Z,-3.61
2024-01-15T11:12:14.489Z,-3.42
2024-01-15T11:15:22.989Z,-3.24
2024-01-15T11:18:28.962Z,-3.55
2024-01-15T11:21:32.786Z,-3.23
2024-01-15T11:24:40.498Z,-3.69
2024-01-15T11:27:45.297Z,-3.60
2024-01-15T11:30:50.477Z,-3.09
2024-01-15T11:33:54.380Z,-3.22
2024-01-15T11:37:05.169Z,-3.41
2024-01-15T11:40:13.299Z,-3.15
2024-01-15T11:43:21.785Z,-3.06
2024-01-15T11:46:33.490Z,-3.06
2024-01-15T11:50:02.756Z,-3.13
2024-01-15T11:53:19.265Z,-3.01
2024-01-15T11:56:25.817Z,-3.09
2024-01-15T11:59:29.570Z,-3.04
2024-01-15T12:02:33.287Z,-3.08
2024-01-15T12:05:40.027Z,-3.17
2024-01-15T12:08:43.905Z,-2.99
2024-01-15T12:11:57.091Z,-3.34
2024-01-15T12:15:01.110Z,-3.33
2024-01-15T12:18:05.764Z,-3.48
2024-01-15T12:21:09.815Z,-3.13
2024-01-15T12:24:13.588Z,-3.39
2024-01-15T12:27:19.216Z,-3.33
2024-01-15T12:30:23.109Z,-3.10
2024-01-15T12:33:26.914Z,-3.17
2024-01-15T12:36:33.456Z,-3.29
2024-01-15T12:39:37.419Z,-3.51
2024-01-15T12:42:44.178Z,-3.24
2024-01-15T12:45:48.395Z,-3.19
2024-01-15T12:48:52.259Z,-3.33
2024-01-15T12:51:56.261Z,-3.18
2024-01-15T12:54:59.952Z,-3.46
2024-01-15T12:58:05.208Z,-3.67
2024-01-15T13:01:09.078Z,-3.67
2024-01-15T13:04:13.027Z,-3.75
2024-01-15T13:07:16.768Z,-3.35
2024-01-15T13:10:20.511Z,-3.41
2024-01-15T13:13:25.627Z,-3.49
2024-01-15T13:16:30.368Z,-3.49
2024-01-15T13:19:34.298Z,-3.84
2024-01-15T13:22:40.488Z,-3.31
2024-01-15T13:25:44.175Z,-3.19
2024-01-15T13:28:50.051Z,-3.57
2024-01-15T13:31:53.767Z,-3.70
2024-01-15T13:34:57.992Z,-3.44
2024-01-15T13:38:01.778Z,-3.39
2024-01-15T13:41:05.645Z,-3.20
2024-01-15T13:44:11.841Z,-3.90
2024-01-15T13:47:15.643Z,-3.67
2024-01-15T13:50:19.671Z,-3.57
2024-01-15T13:53:23.277Z,-3.07
2024-01-15T13:56:31.893Z,-3.32
2024-01-15T13:59:37.052Z,-3.41
2024-01-15T14:02:40.749Z,-3.52
2024-01-15T14:05:45.716Z,-3.62
2024-01-15T14:08:49.375Z,-3.54
2024-01-15T14:11:53.140Z,-3.21
2024-01-15T14:14:58.248Z,-3.37
2024-01-15T14:18:02.398Z,-3.61
2024-01-15T14:21:06.736Z,-3.70
2024-01-15T14:24:10.404Z,-3.48
2024-01-15T14:27:14.030Z,-3.56
2024-01-15T14:30:19.546Z,-3.36
2024-01-15T14:33:23.540Z,-3.18
2024-01-15T14:36:27.455Z,-3.42
2024-01-15T14:39:33.224Z,-3.63
2024-01-15T14:42:37.937Z,-3.47
2024-01-15T14:45:44.299Z,-3.61
2024-01-15T14:48:48.538Z,-3.48
2024-01-15T14:51:52.805Z,-3.49
2024-01-15T14:54:56.626Z,-3.26
2024-01-15T14:58:00.488Z,-3.29
2024-01-15T15:01:06.462Z,-3.46
2024-01-15T15:04:11.740Z,-3.77
2024-01-15T15:07:15.569Z,-3.35
2024-01-15T15:10:19.708Z,-3.11
2024-01-15T15:13:33.984Z,-3.05
2024-01-15T15:16:47.962Z,-3.27
2024-01-15T15:19:54.766Z,-3.51
2024-01-15T15:22:58.720Z,-3.58
2024-01-15T15:26:02.430Z,-3.31
2024-01-15T15:29:06.212Z,-3.28
2024-01-15T15:32:14.054Z,-3.41
2024-01-15T15:35:17.870Z,-3.44
2024-01-15T15:38:22.254Z,-3.67
2024-01-15T15:41:27.125Z,-3.62
2024-01-15T15:44:30.938Z,-3.38
2024-01-15T15:47:36.192Z,-3.22
2024-01-15T15:50:40.233Z,-3.65
2024-01-15T15:53:44.036Z,-3.37
2024-01-15T15:56:50.942Z,-3.73
2024-01-15T15:59:58.569Z,-3.45
2024-01-15T16:03:03.806Z,-3.58
2024-01-15T16:06:07.900Z,-3.78
2024-01-15T16:09:12.517Z,-3.55
2024-01-15T16:12:16.455Z,-3.73
2024-01-15T16:15:22.435Z,-3.47
2024-01-15T16:23:20.940Z,-3.55
2024-01-15T16:23:38.680Z,-3.75
2024-01-15T16:25:21.726Z,-3.48
2024-01-15T16:28:26.772Z,-3.47
2024-01-15T16:31:32.940Z,-3.17
2024-01-15T16:34:38.232Z,-3.53
2024-01-15T16:37:44.683Z,-3.29
2024-01-15T16:40:48.921Z,-3.45
2024-01-15T16:43:52.636Z,-3.46
2024-01-15T16:47:06.715Z,-3.02
2024-01-15T16:50:13.642Z,-3.62
2024-01-15T16:53:17.426Z,-3.50
2024-01-15T16:56:21.432Z,-3.41
2024-01-15T16:59:27.741Z,-3.30
2024-01-15T17:02:31.733Z,-3.03
2024-01-15T17:05:37.550Z,-3.31
2024-01-15T17:08:41.622Z,-3.10
2024-01-15T17:11:46.990Z,-3.35
2024-01-15T17:14:51.150Z,-3.34
2024-01-15T17:17:55.500Z,-3.44
2024-01-15T17:21:01.280Z,-3.41
2024-01-15T17:24:06.742Z,-3.41
2024-01-15T17:27:10.488Z,-3.31
2024-01-15T17:30:14.587Z,-3.40
2024-01-15T17:33:18.472Z,-3.20
2024-01-15T17:36:24.073Z,-3.60
2024-01-15T17:39:28.237Z,-3.42
2024-01-15T17:42:34.501Z,-3.24
2024-01-15T17:45:39.531Z,-3.52
2024-01-15T17:48:43.776Z,-3.00
2024-01-15T17:51:51.815Z,-3.54
2024-01-15T17:54:55.520Z,-3.16
2024-01-15T17:58:00.167Z,-3.13
2024-01-15T18:01:04.101Z,-3.32
2024-01-15T18:04:08.750Z,-3.18
2024-01-15T18:07:16.701Z,-3.19
2024-01-15T18:10:21.091Z,-3.12
2024-01-15T18:13:24.932Z,-2.91
2024-01-15T18:16:28.757Z,-3.33
2024-01-15T18:19:32.732Z,-3.24
2024-01-15T18:22:38.285Z,-3.27
2024-01-15T18:25:44.674Z,-3.38
2024-01-15T18:28:49.786Z,-3.14
2024-01-15T18:31:53.857Z,-3.15
2024-01-15T18:34:57.997Z,-2.96
2024-01-15T18:38:03.403Z,-3.27
2024-01-15T18:41:07.428Z,-3.13
2024-01-15T18:44:11.651Z,-3.35
2024-01-15T18:47:16.283Z,-2.99
2024-01-15T18:50:20.381Z,-3.29
2024-01-15T18:53:31.485Z,-3.22
2024-01-15T18:56:37.330Z,-3.26
2024-01-15T18:59:42.168Z,-3.10
2024-01-15T19:02:51.040Z,-3.17
2024-01-15T19:05:55.673Z,-3.09
2024-01-15T19:09:00.807Z,-3.11
2024-01-15T19:12:05.524Z,-3.01
2024-01-15T19:15:10.395Z,-3.26
2024-01-15T19:18:15.349Z,-3.13
2024-01-15T19:21:22.899Z,-3.11
2024-01-15T19:24:30.715Z,-3.61
2024-01-15T19:27:34.904Z,-3.42
2024-01-15T19:30:45.774Z,-3.23
2024-01-15T19:33:55.199Z,-3.17
2024-01-15T19:36:58.964Z,-3.12
2024-01-15T19:40:04.279Z,-3.23
2024-01-15T19:43:08.940Z,-2.66
2024-01-15T19:46:12.965Z,-2.95
2024-01-15T19:49:18.746Z,-3.17
2024-01-15T19:52:22.446Z,-3.06
2024-01-15T19:55:33.050Z,-2.84
2024-01-15T19:58:40.292Z,-2.70
2024-01-15T20:01:47.970Z,-3.21
2024-01-15T20:04:51.684Z,-3.03
2024-01-15T20:07:55.534Z,-3.09
2024-01-15T20:11:01.169Z,-2.83
2024-01-15T20:14:08.313Z,-2.92
2024-01-15T20:17:12.783Z,-2.74
2024-01-15T20:20:18.004Z,-2.69
2024-01-15T20:23:21.995Z,-2.66
2024-01-15T20:26:27.145Z,-2.69
2024-01-15T20:29:32.023Z,-2.94
2024-01-15T20:32:35.818Z,-2.99
2024-01-15T20:35:39.601Z,-3.07
2024-01-15T20:38:45.775Z,-2.94
2024-01-15T20:41:51.656Z,-2.76
2024-01-15T20:44:55.660Z,-2.98
2024-01-15T20:48:01.518Z,-2.88
2024-01-15T20:51:06.341Z,-2.72
2024-01-15T20:54:10.260Z,-2.68
2024-01-15T20:57:15.389Z,-3.06
2024-01-15T21:00:19.997Z,-2.80
2024-01-15T21:03:23.735Z,-2.89
2024-01-15T21:06:28.328Z,-3.17
2024-01-15T21:09:32.427Z,-3.09
2024-01-15T21:12:38.972Z,-2.72
2024-01-15T21:15:45.619Z,-2.58
2024-01-15T21:18:52.954Z,-2.67
2024-01-15T21:21:56.619Z,-2.76
2024-01-15T21:25:00.597Z,-2.80
2024-01-15T21:28:08.537Z,-2.78
2024-01-15T21:31:12.469Z,-3.00
2024-01-15T21:34:17.152Z,-2.97
2024-01-15T21:37:20.836Z,-2.79
2024-01-15T21:40:27.476Z,-2.63
2024-01-15T21:43:35.320Z,-2.60
2024-01-15T21:46:39.178Z,-2.42
2024-01-15T21:49:44.136Z,-2.33
2024-01-15T21:52:47.822Z,-2.49
2024-01-15T21:55:52.898Z,-2.62
2024-01-15T21:58:58.926Z,-2.63
2024-01-15T22:02:09.659Z,-2.77
2024-01-15T22:05:19.479Z,-2.55
2024-01-15T22:08:24.880Z,-2.59
2024-01-15T22:11:30.232Z,-2.41
2024-01-15T22:14:38.334Z,-2.51
2024-01-15T22:17:44.294Z,-2.46
2024-01-15T22:20:48.141Z,-2.17
2024-01-15T22:23:51.843Z,-2.56
2024-01-15T22:26:55.691Z,-2.76
2024-01-15T22:30:00.835Z,-2.63
2024-01-15T22:33:04.711Z,-2.59
2024-01-15T22:36:08.998Z,-2.24
2024-01-15T22:39:12.672Z,-2.21
2024-01-15T22:42:16.328Z,-2.16
2024-01-15T22:45:21.609Z,-2.31
2024-01-15T22:48:25.818Z,-2.16
2024-01-15T22:51:29.626Z,-2.37
2024-01-15T22:54:33.293Z,-1.97
2024-01-15T22:57:37.536Z,-2.18
2024-01-15T23:00:45.047Z,-2.30
2024-01-15T23:03:49.384Z,-2.32
2024-01-15T23:06:53.062Z,-1.77
2024-01-15T23:09:56.653Z,-2.27
2024-01-15T23:13:00.537Z,-2.20
2024-01-15T23:16:05.731Z,-2.23
2024-01-15T23:19:09.477Z,-1.98
2024-01-15T23:22:13.538Z,-2.10
2024-01-15T23:25:17.221Z,-2.59
2024-01-15T23:28:22.508Z,-2.24
2024-01-15T23:31:27.662Z,-2.00
2024-01-15T23:34:31.347Z,-2.08
2024-01-15T23:37:35.075Z,-2.10
2024-01-15T23:40:38.694Z,-1.85
2024-01-15T23:43:42.291Z,-1.78
2024-01-15T23:46:47.348Z,-2.53
2024-01-15T23:49:50.968Z,-2.35
2024-01-15T23:52:54.633Z,-2.17
2024-01-15T23:55:58.254Z,-2.17
2024-01-15T23:59:02.023Z,-2.16
